createdAt,value
2022-09-07T00:00:59.137Z,16.00
2022-09-07T00:03:27.403Z,16.00
2022-09-07T00:05:55.600Z,16.00
2022-09-07T00:08:28.006Z,16.00
2022-09-07T00:10:59.546Z,15.90
2022-09-07T00:13:30.672Z,15.90
2022-09-07T00:15:59.142Z,15.90
2022-09-07T00:18:27.290Z,15.90
2022-09-07T00:21:02.554Z,15.90
2022-09-07T00:23:31.403Z,15.80
2022-09-07T00:26:06.227Z,15.90
2022-09-07T00:28:34.581Z,15.90
2022-09-07T00:31:02.984Z,15.90
2022-09-07T00:33:31.289Z,15.90
2022-09-07T00:35:59.963Z,15.90
2022-09-07T00:38:28.169Z,15.80
2022-09-07T00:40:56.182Z,15.80
2022-09-07T00:43:33.779Z,15.80
2022-09-07T00:46:02.568Z,15.70
2022-09-07T00:48:35.182Z,15.70
2022-09-07T00:51:06.178Z,15.70
2022-09-07T00:53:37.918Z,15.70
2022-09-07T00:56:07.467Z,15.70
2022-09-07T00:58:38.160Z,15.60
2022-09-07T01:01:06.246Z,15.60
2022-09-07T01:03:39.748Z,15.70
2022-09-07T01:06:13.500Z,15.60
2022-09-07T01:08:43.156Z,15.60
2022-09-07T01:11:11.700Z,15.60
2022-09-07T01:13:43.393Z,15.70
2022-09-07T01:16:27.304Z,15.70
2022-09-07T01:19:10.162Z,15.70
2022-09-07T01:21:55.672Z,15.60
2022-09-07T01:24:55.433Z,15.70
2022-09-07T01:27:56.393Z,15.60
2022-09-07T04:17:50.373Z,16.10
2022-09-07T04:20:18.593Z,16.10
2022-09-07T04:22:53.687Z,16.10
2022-09-07T04:25:22.318Z,16.10
2022-09-07T04:27:50.332Z,16.10
2022-09-07T04:30:18.504Z,16.20
2022-09-07T04:32:47.781Z,16.20
2022-09-07T04:35:17.579Z,16.20
2022-09-07T08:53:46.611Z,23.20
2022-09-07T08:56:20.417Z,23.00
2022-09-07T08:58:50.580Z,22.90
2022-09-07T09:04:16.737Z,22.90
2022-09-07T09:06:11.316Z,22.80
2022-09-07T09:06:58.416Z,22.90
2022-09-07T09:09:35.316Z,22.90
2022-09-07T09:12:18.236Z,22.90
2022-09-07T09:14:59.863Z,23.10
2022-09-07T09:17:31.549Z,23.20
2022-09-07T09:20:13.385Z,23.50
2022-09-07T09:22:42.924Z,23.80
2022-09-07T09:25:19.897Z,24.00
2022-09-07T09:27:48.380Z,23.80
2022-09-07T09:30:18.746Z,24.00
2022-09-07T09:32:48.473Z,24.40
2022-09-07T09:35:21.746Z,24.60
2022-09-07T09:37:51.005Z,24.80
2022-09-07T09:40:25.251Z,25.00
2022-09-07T09:43:01.914Z,24.90
2022-09-07T09:46:12.119Z,25.00
2022-09-07T09:48:26.888Z,25.50
2022-09-07T09:53:54.608Z,25.80
2022-09-07T09:56:23.166Z,25.80
2022-09-07T09:59:56.685Z,25.90
2022-09-07T10:04:34.164Z,25.30
2022-09-07T10:07:14.486Z,25.50
2022-09-07T10:09:49.753Z,25.60
2022-09-07T10:12:28.188Z,25.50
2022-09-07T10:14:57.499Z,25.50
2022-09-07T10:17:30.765Z,25.60
2022-09-07T10:20:02.106Z,25.70
2022-09-07T10:22:35.716Z,25.40
2022-09-07T10:25:29.259Z,25.30
2022-09-07T10:28:03.495Z,25.20
2022-09-07T10:30:38.626Z,25.50
2022-09-07T10:33:13.479Z,25.40
2022-09-07T10:35:50.659Z,25.20
2022-09-07T10:38:20.771Z,25.40
2022-09-07T10:41:00.029Z,25.80
2022-09-07T10:43:42.499Z,26.10
2022-09-07T10:49:27.435Z,26.00
2022-09-07T10:52:05.490Z,26.50
2022-09-07T10:54:45.083Z,26.60
2022-09-07T10:57:30.364Z,26.70
2022-09-07T11:00:08.160Z,27.30
2022-09-07T11:05:56.317Z,27.10
2022-09-07T11:09:14.830Z,26.80
2022-09-07T11:14:20.476Z,26.90
2022-09-07T11:16:54.120Z,26.80
2022-09-07T11:19:37.055Z,27.10
2022-09-07T11:22:20.361Z,27.40
2022-09-07T11:27:46.566Z,28.40
2022-09-07T11:30:21.780Z,28.90
2022-09-07T11:33:06.014Z,28.90
2022-09-07T11:35:40.821Z,28.60
2022-09-07T11:38:20.462Z,28.40
2022-09-07T11:41:03.073Z,28.10
2022-09-07T11:43:36.170Z,28.50
2022-09-07T11:46:08.725Z,28.90
2022-09-07T11:48:42.819Z,29.20
2022-09-07T11:51:15.085Z,28.60
2022-09-07T11:53:47.823Z,28.70
2022-09-07T11:56:21.614Z,28.60
2022-09-07T11:59:09.167Z,27.90
2022-09-07T12:01:48.369Z,28.20
2022-09-07T12:04:43.902Z,28.30
2022-09-07T12:07:31.979Z,29.00
2022-09-07T12:10:23.693Z,29.40
2022-09-07T12:13:12.988Z,30.00
2022-09-07T12:15:49.115Z,29.50
2022-09-07T12:18:32.098Z,29.20
2022-09-07T12:21:00.281Z,29.10
2022-09-07T12:23:30.690Z,28.80
2022-09-07T12:26:36.021Z,29.70
2022-09-07T12:29:23.971Z,30.20
2022-09-07T12:31:58.883Z,30.70
2022-09-07T12:35:02.332Z,30.70
2022-09-07T12:37:38.029Z,30.80
2022-09-07T12:40:57.838Z,30.70
2022-09-07T12:43:51.029Z,30.40
2022-09-07T12:46:21.533Z,30.50
2022-09-07T12:48:58.895Z,30.80
2022-09-07T12:54:31.409Z,30.60
2022-09-07T13:00:01.201Z,31.00
2022-09-07T13:03:49.537Z,31.30
2022-09-07T13:06:09.745Z,31.50
2022-09-07T13:09:10.643Z,32.30
2022-09-07T13:11:40.483Z,31.80
2022-09-07T13:14:20.347Z,31.20
2022-09-07T13:17:19.904Z,31.00
2022-09-07T13:20:21.131Z,31.20
2022-09-07T13:22:56.880Z,31.90
2022-09-07T13:25:47.341Z,32.20
2022-09-07T13:28:23.571Z,32.40
2022-09-07T13:31:06.133Z,32.20
2022-09-07T13:33:48.139Z,32.10
2022-09-07T13:36:27.154Z,31.20
2022-09-07T13:38:56.354Z,31.50
2022-09-07T13:41:29.303Z,31.30
2022-09-07T13:44:01.610Z,30.60
2022-09-07T13:47:03.646Z,29.80
2022-09-07T13:49:55.689Z,29.70
2022-09-07T13:52:31.183Z,29.20
2022-09-07T13:55:12.187Z,28.60
2022-09-07T13:57:50.746Z,28.40
2022-09-07T14:00:19.435Z,28.40
2022-09-07T14:02:55.960Z,28.30
2022-09-07T14:05:25.340Z,28.50
2022-09-07T14:07:53.711Z,28.90
2022-09-07T14:10:25.011Z,28.60
2022-09-07T14:13:05.819Z,28.60
2022-09-07T14:15:39.305Z,28.60
2022-09-07T14:18:13.470Z,28.30
2022-09-07T14:20:44.618Z,28.30
2022-09-07T14:23:16.993Z,28.30
2022-09-07T14:28:38.013Z,28.70
2022-09-07T14:31:07.006Z,30.30
2022-09-07T14:33:35.272Z,31.20
2022-09-07T14:36:23.233Z,31.90
2022-09-07T14:39:07.982Z,32.30
2022-09-07T14:41:38.665Z,33.80
2022-09-07T14:44:08.067Z,35.00
2022-09-07T14:46:37.241Z,35.20
2022-09-07T14:49:18.190Z,33.40
2022-09-07T14:51:48.402Z,33.10
2022-09-07T14:54:21.303Z,32.70
2022-09-07T14:57:02.532Z,33.40
2022-09-07T14:59:43.313Z,33.60
2022-09-07T15:02:28.474Z,34.40
2022-09-07T15:05:20.504Z,34.00
2022-09-07T15:07:49.719Z,32.00
2022-09-07T15:10:28.464Z,31.70
2022-09-07T15:12:57.934Z,31.20
2022-09-07T15:15:29.994Z,30.30
2022-09-07T15:32:01.099Z,29.80
2022-09-07T15:34:42.098Z,29.30
2022-09-07T15:38:01.876Z,28.80
2022-09-07T15:41:37.763Z,28.60
2022-09-07T15:44:43.134Z,28.60
2022-09-07T15:47:47.700Z,28.60
2022-09-07T15:50:34.431Z,28.50
2022-09-07T15:56:44.402Z,28.50
2022-09-07T15:59:56.181Z,28.60
2022-09-07T16:03:10.204Z,28.50
2022-09-07T16:06:18.519Z,28.60
2022-09-07T16:09:07.379Z,29.20
2022-09-07T16:13:00.134Z,30.60
2022-09-07T16:18:01.863Z,32.80
2022-09-07T16:21:17.725Z,33.50
2022-09-07T16:24:14.235Z,34.00
2022-09-07T16:27:06.127Z,34.00
2022-09-07T16:32:54.195Z,33.10
2022-09-07T16:36:01.684Z,32.60
2022-09-07T16:38:58.219Z,32.50
2022-09-07T16:46:02.728Z,31.40
2022-09-07T16:48:24.771Z,31.50
2022-09-07T16:51:33.363Z,30.40
2022-09-07T16:54:52.579Z,29.60
2022-09-07T17:00:51.906Z,28.40
2022-09-07T17:03:53.670Z,28.10
2022-09-07T17:06:44.168Z,27.70
2022-09-07T17:10:15.387Z,27.40
2022-09-07T17:13:37.830Z,27.30
2022-09-07T17:16:26.596Z,27.20
2022-09-07T17:19:35.889Z,27.00
2022-09-07T17:22:44.597Z,26.90
2022-09-07T17:25:44.691Z,26.60
2022-09-07T17:28:33.275Z,26.40
2022-09-07T17:35:07.545Z,25.90
2022-09-07T17:41:48.129Z,25.50
2022-09-07T17:44:40.504Z,25.30
2022-09-07T17:47:39.537Z,25.20
2022-09-07T17:53:46.171Z,24.80
2022-09-07T17:56:40.399Z,24.60
2022-09-07T18:03:10.516Z,24.40
2022-09-07T18:09:29.282Z,24.10
2022-09-07T18:12:33.226Z,24.00
2022-09-07T18:15:46.108Z,23.80
2022-09-07T18:19:00.001Z,23.70
2022-09-07T18:21:56.523Z,23.70
2022-09-07T18:24:51.046Z,23.50
2022-09-07T18:31:11.526Z,23.50
2022-09-07T18:34:27.393Z,23.50
2022-09-07T18:37:12.454Z,23.50
2022-09-07T18:40:13.351Z,23.50
2022-09-07T18:43:07.870Z,23.40
2022-09-07T18:46:11.815Z,23.30
2022-09-07T18:49:04.302Z,23.30
2022-09-07T18:56:19.176Z,23.10
2022-09-07T18:59:16.698Z,23.20
2022-09-07T19:06:11.103Z,23.00
2022-09-07T19:09:16.337Z,22.80
2022-09-07T19:15:05.212Z,22.40
2022-09-07T19:18:04.268Z,22.30
2022-09-07T19:24:55.414Z,22.10
2022-09-07T19:34:34.934Z,21.70
2022-09-07T19:40:47.916Z,21.60
2022-09-07T19:44:15.672Z,21.40
2022-09-07T19:53:49.119Z,21.20
2022-09-07T19:56:43.454Z,21.10
2022-09-07T19:59:37.741Z,21.20
2022-09-07T20:02:28.988Z,21.10
2022-09-07T20:05:06.238Z,21.20
2022-09-07T20:08:15.728Z,21.20
2022-09-07T20:10:57.466Z,21.20
2022-09-07T20:14:01.648Z,21.20
2022-09-07T20:17:05.855Z,21.20
2022-09-07T20:20:11.752Z,21.20
2022-09-07T20:26:42.672Z,21.00
2022-09-07T20:30:09.844Z,20.80
2022-09-07T20:34:59.381Z,20.70
2022-09-07T20:37:02.257Z,20.60
2022-09-07T20:40:19.480Z,20.50
2022-09-07T20:42:47.741Z,20.60
2022-09-07T20:45:18.708Z,20.40
2022-09-07T20:47:46.694Z,20.40
2022-09-07T20:50:14.827Z,20.30
2022-09-07T20:52:44.280Z,20.30
2022-09-07T20:55:12.498Z,20.20
2022-09-07T20:57:40.539Z,20.10
2022-09-07T21:00:09.491Z,20.00
2022-09-07T21:02:37.880Z,20.00
2022-09-07T21:05:07.872Z,19.90
2022-09-07T21:07:35.920Z,19.90
2022-09-07T21:10:07.000Z,19.90
2022-09-07T21:12:35.245Z,19.80
2022-09-07T21:15:03.446Z,19.80
2022-09-07T21:17:31.539Z,19.80
2022-09-07T21:19:59.558Z,19.80
2022-09-07T21:22:27.528Z,19.80
2022-09-07T21:24:55.502Z,19.80
2022-09-07T21:27:25.562Z,19.70
2022-09-07T21:29:53.524Z,19.70
2022-09-07T21:32:21.579Z,19.70
2022-09-07T21:34:49.518Z,19.60
2022-09-07T21:37:17.464Z,19.60
2022-09-07T21:39:45.447Z,19.50
2022-09-07T21:42:13.527Z,19.50
2022-09-07T21:44:42.909Z,19.50
2022-09-07T21:47:10.804Z,19.50
2022-09-07T21:49:38.830Z,19.40
2022-09-07T21:52:06.831Z,19.40
2022-09-07T21:54:34.788Z,19.40
2022-09-07T21:57:02.694Z,19.40
2022-09-07T21:59:30.620Z,19.30
2022-09-07T22:02:00.567Z,19.40
2022-09-07T22:04:28.905Z,19.50
2022-09-07T22:06:56.961Z,19.50
2022-09-07T22:09:24.855Z,19.40
2022-09-07T22:11:52.884Z,19.50
2022-09-07T22:14:20.841Z,19.40
2022-09-07T22:16:48.886Z,19.40
2022-09-07T22:19:18.211Z,19.40
2022-09-07T22:21:46.177Z,19.30
2022-09-07T22:24:15.208Z,19.30
2022-09-07T22:26:43.207Z,19.20
2022-09-07T22:29:13.388Z,19.20
2022-09-07T22:31:42.062Z,19.10
2022-09-07T22:34:10.530Z,19.10
2022-09-07T22:36:41.868Z,18.90
2022-09-07T22:39:12.576Z,18.90
2022-09-07T22:41:41.730Z,18.80
2022-09-07T22:44:13.571Z,18.80
2022-09-07T22:46:42.952Z,18.80
2022-09-07T22:49:12.575Z,18.70
2022-09-07T22:51:41.940Z,18.70
2022-09-07T22:54:09.847Z,18.70
2022-09-07T22:56:38.311Z,18.60
2022-09-07T22:59:09.267Z,18.60
2022-09-07T23:01:37.760Z,18.50
2022-09-07T23:04:06.617Z,18.40
2022-09-07T23:06:36.594Z,18.30
2022-09-07T23:09:08.741Z,18.30
2022-09-07T23:11:37.094Z,18.30
2022-09-07T23:14:08.537Z,18.30
2022-09-07T23:16:36.435Z,18.30
2022-09-07T23:19:04.977Z,18.30
2022-09-07T23:21:32.984Z,18.30
2022-09-07T23:24:01.647Z,18.10
2022-09-07T23:26:32.701Z,18.10
2022-09-07T23:29:02.690Z,18.10
2022-09-07T23:31:32.935Z,18.10
2022-09-07T23:34:01.545Z,18.10
2022-09-07T23:36:30.535Z,18.00
2022-09-07T23:39:00.034Z,18.00
2022-09-07T23:41:28.772Z,17.90
2022-09-07T23:43:58.142Z,17.80
2022-09-07T23:46:26.233Z,17.80
2022-09-07T23:48:54.257Z,17.80
2022-09-07T23:51:24.545Z,17.80
2022-09-07T23:53:52.994Z,17.80
2022-09-07T23:56:21.505Z,17.80
2022-09-07T23:58:49.500Z,17.80
